Time;durP1;ratioP1;P1;durP2;ratioP2;P2;SDS_P1;SDS_P2;PMS_P1;PMS_P2;Temp;Humidity;BMP_temperature;BMP_pressure;BME280_temperature;BME280_humidity;BME280_pressure;Samples;Min_cycle;Max_cycle;Signal;HPM_P1;HPM_P2
2021/12/22 00:01:05;;;;;;;16.45;9.00;;;-1.80;66.90;;;;;;5114124;28;20023;-75
2021/12/22 00:03:30;;;;;;;21.13;8.95;;;-1.80;66.90;;;;;;5130045;28;20038;-75
2021/12/22 00:05:56;;;;;;;21.13;9.77;;;-1.90;67.00;;;;;;5114732;27;20027;-75
2021/12/22 00:08:23;;;;;;;17.40;9.40;;;-1.90;67.20;;;;;;5117211;27;20080;-75
2021/12/22 00:10:49;;;;;;;18.85;9.32;;;-1.90;67.30;;;;;;5124984;27;20019;-76
2021/12/22 00:13:16;;;;;;;14.50;8.63;;;-1.90;67.40;;;;;;5115525;27;20539;-75
2021/12/22 00:15:42;;;;;;;16.65;9.07;;;-2.00;67.20;;;;;;5133174;27;20032;-75
2021/12/22 00:18:08;;;;;;;25.35;11.48;;;-2.00;67.20;;;;;;5135517;27;20394;-75
2021/12/22 00:20:34;;;;;;;21.83;10.55;;;-2.00;67.20;;;;;;5134821;27;20027;-75
2021/12/22 00:23:00;;;;;;;16.48;8.90;;;-2.10;67.40;;;;;;5135995;27;20061;-75
2021/12/22 00:25:26;;;;;;;19.73;10.45;;;-2.00;67.70;;;;;;5124874;27;20020;-75
2021/12/22 00:27:53;;;;;;;18.88;10.32;;;-2.10;67.90;;;;;;5104988;27;20043;-76
2021/12/22 00:30:20;;;;;;;17.15;8.88;;;-2.10;68.00;;;;;;5099141;27;20067;-75
2021/12/22 00:32:53;;;;;;;19.20;9.32;;;-2.10;68.00;;;;;;5117568;27;20121;-75
2021/12/22 00:35:21;;;;;;;13.95;7.30;;;-2.10;68.10;;;;;;5134981;27;20068;-75
2021/12/22 00:37:47;;;;;;;16.08;7.95;;;-2.10;68.20;;;;;;5117537;27;20042;-75
2021/12/22 00:40:13;;;;;;;19.25;9.55;;;-1.80;68.30;;;;;;5117255;27;20027;-75
2021/12/22 00:42:39;;;;;;;13.43;8.05;;;-2.10;68.20;;;;;;5136510;27;20019;-75
2021/12/22 00:45:05;;;;;;;14.82;9.10;;;-2.00;68.20;;;;;;5099439;27;20490;-75
2021/12/22 00:47:31;;;;;;;14.85;8.52;;;-2.10;68.30;;;;;;5120917;27;20480;-75
2021/12/22 00:49:59;;;;;;;16.45;9.38;;;-2.00;68.50;;;;;;5115347;27;20029;-75
2021/12/22 00:52:25;;;;;;;18.83;10.27;;;-2.00;68.50;;;;;;5118616;27;20023;-75
2021/12/22 00:54:51;;;;;;;19.15;9.50;;;-1.90;68.50;;;;;;5135122;27;20031;-75
2021/12/22 00:57:17;;;;;;;16.50;9.05;;;-1.90;68.30;;;;;;5136191;27;20023;-75
2021/12/22 00:59:45;;;;;;;20.10;9.18;;;-1.90;68.30;;;;;;5120919;27;20412;-75
2021/12/22 01:02:13;;;;;;;22.58;9.30;;;-1.90;68.40;;;;;;5124757;27;20024;-75
2021/12/22 01:04:40;;;;;;;14.43;8.57;;;-1.90;69.00;;;;;;5107726;27;20019;-75
2021/12/22 01:07:06;;;;;;;16.90;8.88;;;-1.90;68.20;;;;;;5134940;27;20098;-75
2021/12/22 01:09:33;;;;;;;17.45;9.95;;;-1.90;68.10;;;;;;5135228;27;20531;-75
2021/12/22 01:11:59;;;;;;;15.13;8.60;;;-1.90;67.90;;;;;;5130397;27;20027;-75
2021/12/22 01:14:25;;;;;;;15.15;9.18;;;-1.90;67.90;;;;;;5130082;27;20036;-75
2021/12/22 01:16:54;;;;;;;14.32;8.35;;;-1.90;67.80;;;;;;5135416;27;20039;-75
2021/12/22 01:19:31;;;;;;;16.90;9.55;;;-1.90;67.70;;;;;;5126874;27;20733;-75
2021/12/22 01:22:06;;;;;;;14.10;8.02;;;-1.90;67.70;;;;;;5135300;27;20027;-75
2021/12/22 01:24:34;;;;;;;11.75;8.13;;;-1.90;67.70;;;;;;5115158;27;20023;-75
2021/12/22 01:27:08;;;;;;;15.68;8.77;;;-1.90;67.50;;;;;;5129605;27;20066;-76
2021/12/22 01:29:37;;;;;;;26.70;9.68;;;-2.00;67.40;;;;;;5108479;27;20040;-76
2021/12/22 01:32:04;;;;;;;18.70;9.73;;;-2.00;67.30;;;;;;5117270;27;20110;-75
2021/12/22 01:34:30;;;;;;;15.90;8.75;;;-2.00;67.40;;;;;;5116592;27;20035;-75
2021/12/22 01:36:56;;;;;;;17.88;9.75;;;-2.00;67.50;;;;;;5135141;27;20031;-75
2021/12/22 01:39:22;;;;;;;16.73;8.98;;;-2.00;67.70;;;;;;5115916;27;20034;-75
2021/12/22 01:41:48;;;;;;;18.33;9.68;;;-2.00;67.90;;;;;;5134926;27;20024;-75
2021/12/22 01:50:28;;;;;;;15.35;8.90;;;-1.90;68.00;;;;;;5129658;27;20038;-75
2021/12/22 01:52:54;;;;;;;17.08;8.27;;;-1.90;68.30;;;;;;5116124;27;20382;-75
2021/12/22 01:55:34;;;;;;;13.98;8.20;;;-1.90;68.40;;;;;;5115679;27;20019;-75
2021/12/22 01:58:01;;;;;;;16.45;8.55;;;-1.90;68.40;;;;;;5135070;27;20055;-76
2021/12/22 02:00:28;;;;;;;15.35;8.40;;;-1.80;68.50;;;;;;5132329;27;20023;-75
2021/12/22 02:02:58;;;;;;;19.85;8.07;;;-1.80;68.50;;;;;;5116694;27;20057;-76
2021/12/22 02:05:24;;;;;;;17.27;8.20;;;-1.80;68.50;;;;;;5131143;27;20027;-75
2021/12/22 02:07:55;;;;;;;12.57;7.97;;;-1.80;68.50;;;;;;5133490;27;20495;-75
2021/12/22 02:12:53;;;;;;;16.83;9.15;;;-1.70;68.80;;;;;;5134002;27;20027;-75
2021/12/22 02:15:19;;;;;;;16.58;8.32;;;-1.60;68.90;;;;;;5120623;27;20035;-75
2021/12/22 02:17:45;;;;;;;17.08;8.70;;;-1.60;68.90;;;;;;5134599;27;20137;-76
2021/12/22 02:20:11;;;;;;;14.48;7.55;;;-1.40;68.90;;;;;;5101298;28;20062;-75
2021/12/22 02:22:39;;;;;;;19.92;9.00;;;-1.50;68.80;;;;;;5118789;27;20026;-75
2021/12/22 02:25:13;;;;;;;18.27;9.50;;;-1.50;68.80;;;;;;5108071;27;20161;-75
2021/12/22 02:27:45;;;;;;;15.70;8.88;;;-1.50;68.80;;;;;;5127720;27;21902;-75
2021/12/22 02:30:24;;;;;;;16.10;8.50;;;-1.20;68.90;;;;;;5118453;27;20391;-75
2021/12/22 02:35:17;;;;;;;17.27;8.95;;;-1.40;68.70;;;;;;5132937;27;20114;-75
2021/12/22 02:37:45;;;;;;;19.02;9.00;;;-1.40;68.70;;;;;;5115784;27;20027;-76
2021/12/22 02:40:16;;;;;;;17.63;9.13;;;-1.30;68.70;;;;;;5113321;27;20110;-75
2021/12/22 02:42:43;;;;;;;18.27;8.82;;;-1.30;68.60;;;;;;5117476;27;20027;-75
2021/12/22 02:45:15;;;;;;;17.02;8.50;;;-1.30;68.60;;;;;;5115340;27;20024;-75
2021/12/22 02:47:41;;;;;;;14.27;8.23;;;-1.30;68.60;;;;;;5113762;27;20034;-76
2021/12/22 02:50:09;;;;;;;16.38;8.60;;;-1.20;68.70;;;;;;5114215;27;20027;-75
2021/12/22 02:52:50;;;;;;;20.40;8.43;;;-1.20;68.60;;;;;;5115177;27;20475;-75
2021/12/22 02:55:16;;;;;;;20.75;9.23;;;-1.20;68.50;;;;;;5095170;28;20032;-75
2021/12/22 02:57:48;;;;;;;21.00;8.88;;;-1.20;68.50;;;;;;5112058;28;20118;-75
2021/12/22 03:03:13;;;;;;;14.90;8.70;;;-1.10;68.60;;;;;;5126593;27;20060;-75
2021/12/22 03:05:39;;;;;;;15.75;9.60;;;-1.10;68.60;;;;;;5113218;28;20023;-75
2021/12/22 03:08:05;;;;;;;20.42;10.05;;;-1.10;68.50;;;;;;5125675;27;20043;-75
2021/12/22 03:10:32;;;;;;;17.90;9.95;;;-1.10;68.60;;;;;;5109080;27;20052;-74
2021/12/22 03:13:02;;;;;;;19.77;9.70;;;-1.10;68.60;;;;;;5113672;28;20380;-75
2021/12/22 03:15:28;;;;;;;17.55;8.52;;;-1.10;68.60;;;;;;5133241;27;20031;-75
2021/12/22 03:17:54;;;;;;;17.95;9.13;;;-1.00;68.60;;;;;;5132154;27;20487;-75
2021/12/22 03:20:20;;;;;;;19.50;9.13;;;-1.00;68.60;;;;;;5114538;28;20035;-75
2021/12/22 03:22:47;;;;;;;16.45;8.75;;;-1.00;68.70;;;;;;5131121;28;20055;-75
2021/12/22 03:25:16;;;;;;;16.50;8.38;;;-1.00;68.70;;;;;;5132014;27;20471;-75
2021/12/22 03:27:50;;;;;;;16.38;8.10;;;-1.00;68.70;;;;;;5116190;28;20031;-75
2021/12/22 03:30:17;;;;;;;;;;;-0.90;68.70;;;;;;5128205;28;20418;-75
2021/12/22 03:32:43;;;;;;;19.50;8.15;;;-0.90;68.70;;;;;;5114388;27;19926;-75
2021/12/22 03:35:17;;;;;;;15.65;8.50;;;-0.90;68.40;;;;;;5130734;28;20389;-75
2021/12/22 03:37:44;;;;;;;;;;;-0.90;68.40;;;;;;5112983;28;20556;-75
2021/12/22 03:40:10;;;;;;;15.52;8.23;;;-0.90;68.60;;;;;;5099218;28;19908;-75
2021/12/22 03:42:36;;;;;;;21.90;9.48;;;-0.90;68.30;;;;;;5126903;27;20047;-75
2021/12/22 03:45:02;;;;;;;15.35;8.70;;;-0.90;68.30;;;;;;5136924;27;20501;-75
2021/12/22 03:47:28;;;;;;;17.08;8.70;;;-0.90;68.40;;;;;;5124108;27;20059;-75
2021/12/22 03:49:54;;;;;;;15.70;8.63;;;-0.70;68.60;;;;;;5118693;27;20062;-75
2021/12/22 03:52:19;;;;;;;17.05;8.95;;;-0.90;68.60;;;;;;5134968;27;20054;-75
2021/12/22 03:54:45;;;;;;;16.45;8.60;;;-0.90;68.60;;;;;;5137384;27;20051;-76
2021/12/22 03:57:10;;;;;;;15.95;7.90;;;-0.80;68.70;;;;;;5119159;27;20019;-75
2021/12/22 03:59:36;;;;;;;16.13;8.32;;;-0.90;68.60;;;;;;5118065;27;20909;-76
2021/12/22 04:02:02;;;;;;;18.00;8.68;;;-0.90;68.60;;;;;;5137380;27;20016;-75
2021/12/22 04:04:28;;;;;;;14.85;8.13;;;-0.90;68.50;;;;;;5123505;27;20473;-75
2021/12/22 04:06:53;;;;;;;19.17;8.85;;;-0.90;68.40;;;;;;5103230;27;20023;-75
2021/12/22 04:09:26;;;;;;;21.20;8.75;;;-0.90;68.40;;;;;;5117487;27;20039;-75
2021/12/22 04:11:53;;;;;;;18.42;8.77;;;-0.90;68.40;;;;;;5118736;27;20046;-75
2021/12/22 04:14:19;;;;;;;19.15;8.77;;;-0.90;68.40;;;;;;5134981;27;20079;-75
2021/12/22 04:16:44;;;;;;;16.80;9.82;;;-0.90;68.40;;;;;;5119018;27;20023;-75
2021/12/22 04:19:10;;;;;;;17.27;9.18;;;-0.90;68.40;;;;;;5129217;27;20024;-75
2021/12/22 04:21:36;;;;;;;27.27;13.43;;;-0.90;68.40;;;;;;5119553;27;20026;-75
2021/12/22 04:24:02;;;;;;;19.05;10.57;;;-0.90;68.40;;;;;;5134848;27;20061;-75
2021/12/22 04:26:31;;;;;;;19.92;9.88;;;-0.80;68.50;;;;;;5135906;27;20054;-75
2021/12/22 04:28:57;;;;;;;18.52;9.05;;;-0.90;68.60;;;;;;5129155;27;20042;-75
2021/12/22 04:31:23;;;;;;;12.48;8.30;;;-0.90;68.60;;;;;;5136433;27;20502;-75
2021/12/22 04:33:49;;;;;;;15.60;8.40;;;-0.60;68.70;;;;;;5134345;27;20375;-75
2021/12/22 04:36:14;;;;;;;19.42;9.13;;;-0.70;68.70;;;;;;5135420;27;20019;-75
2021/12/22 04:38:40;;;;;;;17.00;9.02;;;-0.80;68.70;;;;;;5134212;27;20030;-75
2021/12/22 04:41:06;;;;;;;19.23;9.25;;;-0.80;68.70;;;;;;5118056;27;20019;-75
2021/12/22 04:43:31;;;;;;;15.90;8.82;;;-0.80;68.60;;;;;;5116664;27;20100;-75
2021/12/22 04:45:57;;;;;;;15.75;8.50;;;-0.80;68.60;;;;;;5117693;27;20099;-75
2021/12/22 04:48:23;;;;;;;17.83;8.77;;;-0.80;68.60;;;;;;5131230;27;20031;-74
2021/12/22 04:50:49;;;;;;;18.00;8.95;;;-0.70;68.70;;;;;;5117725;27;20023;-75
2021/12/22 04:53:21;;;;;;;17.88;9.23;;;-0.70;68.70;;;;;;5130345;27;20023;-75
2021/12/22 04:55:46;;;;;;;17.23;10.10;;;-0.70;68.70;;;;;;5136033;27;20096;-76
2021/12/22 04:58:12;;;;;;;24.45;12.98;;;-0.70;68.80;;;;;;5115984;27;20428;-75
2021/12/22 05:00:39;;;;;;;25.20;12.02;;;-0.70;68.90;;;;;;5112155;27;20544;-75
2021/12/22 05:03:05;;;;;;;22.10;11.43;;;-0.70;69.00;;;;;;5131759;27;20027;-75
2021/12/22 05:05:32;;;;;;;20.63;9.93;;;-0.50;69.10;;;;;;5135091;27;20038;-75
2021/12/22 05:07:58;;;;;;;30.25;16.08;;;-0.60;68.90;;;;;;5134920;27;20039;-76
2021/12/22 05:10:24;;;;;;;19.75;10.38;;;-0.60;69.00;;;;;;5134160;27;20027;-75
2021/12/22 05:12:51;;;;;;;17.52;9.93;;;-0.60;68.90;;;;;;5135296;27;20038;-75
2021/12/22 05:15:22;;;;;;;18.08;9.75;;;-0.50;69.00;;;;;;5130594;27;20023;-76
2021/12/22 05:20:21;;;;;;;24.73;12.57;;;-0.50;69.00;;;;;;5134491;27;20034;-75
2021/12/22 05:22:47;;;;;;;22.17;10.73;;;-0.50;68.90;;;;;;5115991;27;20042;-76
2021/12/22 05:25:13;;;;;;;25.65;11.32;;;-0.50;69.00;;;;;;5133946;27;20071;-75
2021/12/22 05:27:40;;;;;;;25.83;11.90;;;-0.50;69.00;;;;;;5124901;27;20023;-75
2021/12/22 05:30:07;;;;;;;22.70;12.00;;;-0.50;69.00;;;;;;5109054;27;20051;-74
2021/12/22 05:32:34;;;;;;;25.77;12.32;;;-0.40;69.10;;;;;;5134797;27;20129;-75
2021/12/22 05:35:02;;;;;;;26.98;11.95;;;-0.40;69.30;;;;;;5133620;27;20030;-75
2021/12/22 05:37:27;;;;;;;29.05;11.57;;;-0.40;69.40;;;;;;5117008;27;20023;-75
2021/12/22 05:39:56;;;;;;;30.88;12.88;;;-0.40;69.50;;;;;;5131828;27;20042;-74
2021/12/22 05:42:23;;;;;;;41.63;14.75;;;-0.40;69.50;;;;;;5116832;27;20043;-75
2021/12/22 05:44:48;;;;;;;36.63;14.07;;;-0.40;69.50;;;;;;5133992;27;20039;-75
2021/12/22 05:47:14;;;;;;;46.95;14.32;;;-0.30;69.60;;;;;;5116776;27;20023;-75
2021/12/22 05:49:40;;;;;;;39.40;15.35;;;-0.30;69.60;;;;;;5132857;27;20027;-75
2021/12/22 05:52:06;;;;;;;39.58;15.45;;;-0.30;70.40;;;;;;5134421;27;20076;-74
2021/12/22 05:54:32;;;;;;;56.50;15.80;;;-0.30;69.80;;;;;;5114176;27;20062;-74
2021/12/22 05:56:57;;;;;;;78.68;15.07;;;0.00;70.20;;;;;;5116054;27;20487;-75
2021/12/22 05:59:23;;;;;;;36.70;14.88;;;-0.30;69.80;;;;;;5128432;27;20027;-75
2021/12/22 06:01:51;;;;;;;54.00;16.35;;;-0.10;70.10;;;;;;5117466;27;20023;-75
2021/12/22 06:04:17;;;;;;;61.97;16.23;;;-0.30;70.00;;;;;;5123226;27;20055;-75
2021/12/22 06:06:43;;;;;;;78.03;15.80;;;-0.30;70.00;;;;;;5115019;27;20062;-75
2021/12/22 06:09:09;;;;;;;68.30;15.63;;;-0.30;70.10;;;;;;5133061;27;20494;-75
2021/12/22 06:11:34;;;;;;;49.58;15.18;;;-0.30;70.10;;;;;;5134074;27;20068;-75
2021/12/22 06:14:01;;;;;;;62.08;15.13;;;-0.40;70.00;;;;;;5114272;27;20032;-75
2021/12/22 06:16:29;;;;;;;49.20;16.88;;;-0.30;70.20;;;;;;5113128;27;20034;-75
2021/12/22 06:19:03;;;;;;;34.15;14.75;;;-0.20;70.40;;;;;;5133393;27;20027;-75
2021/12/22 06:21:30;;;;;;;49.58;14.63;;;-0.40;70.30;;;;;;5127652;27;20027;-75
2021/12/22 06:23:57;;;;;;;47.03;15.48;;;-0.40;70.50;;;;;;5116376;27;20444;-75
2021/12/22 06:26:23;;;;;;;40.30;14.77;;;-0.10;70.80;;;;;;5133800;27;20068;-75
2021/12/22 06:28:49;;;;;;;54.78;15.15;;;-0.40;70.60;;;;;;5128768;27;20092;-75
2021/12/22 06:31:14;;;;;;;39.75;15.13;;;-0.40;70.70;;;;;;5117011;27;20020;-75
2021/12/22 06:33:40;;;;;;;50.80;15.38;;;-0.40;70.60;;;;;;5129203;27;20027;-75
2021/12/22 06:36:06;;;;;;;55.05;15.50;;;-0.40;70.70;;;;;;5122417;27;20035;-75
2021/12/22 06:38:32;;;;;;;54.42;16.58;;;-0.40;70.70;;;;;;5132357;27;20383;-75
2021/12/22 06:40:59;;;;;;;40.38;14.35;;;-0.40;70.60;;;;;;5133171;27;20494;-75
2021/12/22 06:43:25;;;;;;;45.33;14.35;;;-0.40;70.60;;;;;;5131825;27;20022;-75
2021/12/22 06:45:50;;;;;;;50.60;16.95;;;-0.40;70.70;;;;;;5133432;27;20020;-75
2021/12/22 06:48:17;;;;;;;53.42;15.73;;;-0.40;70.80;;;;;;5125000;27;20384;-75
2021/12/22 06:50:42;;;;;;;99.38;15.55;;;-0.20;71.00;;;;;;5114152;27;20036;-75
2021/12/22 06:53:08;;;;;;;73.03;16.55;;;-0.40;71.00;;;;;;5132897;27;20031;-75
2021/12/22 06:55:34;;;;;;;56.13;15.57;;;-0.30;71.00;;;;;;5132213;27;20030;-75
2021/12/22 06:58:00;;;;;;;76.07;17.35;;;-0.30;70.90;;;;;;5107647;27;20028;-75
2021/12/22 07:00:26;;;;;;;72.63;16.80;;;-0.30;71.00;;;;;;5114295;28;20011;-74
2021/12/22 07:02:53;;;;;;;54.80;15.35;;;-0.20;71.20;;;;;;5120374;27;20023;-75
2021/12/22 07:05:19;;;;;;;96.55;16.10;;;-0.30;71.20;;;;;;5133624;27;20023;-75
2021/12/22 07:07:45;;;;;;;60.60;17.50;;;-0.30;71.10;;;;;;5109439;27;20020;-75
2021/12/22 07:10:12;;;;;;;58.47;17.85;;;-0.30;71.10;;;;;;5097106;27;20475;-75
2021/12/22 07:12:42;;;;;;;55.13;15.63;;;-0.30;70.70;;;;;;5116156;27;20035;-75
2021/12/22 07:15:10;;;;;;;68.15;16.73;;;-0.20;71.20;;;;;;5116272;27;20032;-75
2021/12/22 07:17:39;;;;;;;61.97;16.30;;;-0.30;71.10;;;;;;5132343;27;20049;-75
2021/12/22 07:20:05;;;;;;;41.42;16.80;;;-0.30;71.30;;;;;;5097979;27;20031;-75
2021/12/22 07:22:32;;;;;;;49.67;18.73;;;-0.30;71.30;;;;;;5127237;27;20119;-74
2021/12/22 07:24:58;;;;;;;59.47;18.77;;;-0.30;71.40;;;;;;5117192;28;20055;-75
2021/12/22 07:27:24;;;;;;;39.10;17.15;;;-0.20;71.40;;;;;;5113995;28;20112;-75
2021/12/22 07:29:50;;;;;;;50.65;18.65;;;-0.10;71.50;;;;;;5122574;28;20058;-74
2021/12/22 07:32:15;;;;;;;45.30;16.63;;;-0.10;71.50;;;;;;5120126;28;20023;-75
2021/12/22 07:34:41;;;;;;;43.10;16.55;;;-0.20;71.40;;;;;;5114335;28;20023;-75
2021/12/22 07:37:43;;;;;;;56.33;16.15;;;-0.20;71.20;;;;;;5133220;27;20020;-75
2021/12/22 07:40:15;;;;;;;60.28;15.52;;;-0.20;71.40;;;;;;5121918;28;20063;-75
2021/12/22 07:42:41;;;;;;;38.20;15.02;;;-0.20;71.20;;;;;;5131881;28;20023;-74
2021/12/22 07:45:09;;;;;;;35.05;16.02;;;-0.20;71.10;;;;;;5128985;28;20103;-78
2021/12/22 07:47:34;;;;;;;43.70;17.55;;;-0.20;71.20;;;;;;5112092;28;20125;-78
2021/12/22 07:50:00;;;;;;;37.60;15.77;;;-0.20;71.20;;;;;;5107281;28;20119;-77
2021/12/22 07:52:27;;;;;;;37.03;13.95;;;-0.20;71.10;;;;;;5120203;27;20051;-78
2021/12/22 07:54:57;;;;;;;34.72;15.48;;;-0.20;71.20;;;;;;5110139;28;20031;-76
2021/12/22 07:57:23;;;;;;;40.10;17.52;;;-0.20;71.30;;;;;;5122337;28;20106;-78
2021/12/22 07:59:49;;;;;;;39.17;15.43;;;-0.10;71.40;;;;;;5128143;27;20106;-78
2021/12/22 08:02:14;;;;;;;44.47;16.08;;;-0.10;71.30;;;;;;5129022;28;20035;-78
2021/12/22 08:04:41;;;;;;;38.40;15.95;;;-0.10;71.10;;;;;;5141169;27;20023;-78
2021/12/22 08:07:06;;;;;;;39.60;15.70;;;-0.10;71.10;;;;;;5097156;28;20079;-78
2021/12/22 08:09:32;;;;;;;33.83;15.38;;;0.10;71.20;;;;;;5123275;27;20437;-78
2021/12/22 08:12:05;;;;;;;40.13;15.65;;;0.00;71.00;;;;;;5124287;27;20019;-78
2021/12/22 08:14:35;;;;;;;34.40;15.35;;;0.10;71.00;;;;;;5114985;28;20491;-78
2021/12/22 08:17:01;;;;;;;35.90;15.77;;;0.00;71.00;;;;;;5126739;28;20030;-78
2021/12/22 08:19:26;;;;;;;43.35;15.95;;;0.00;71.00;;;;;;5127781;27;20023;-78
2021/12/22 08:21:52;;;;;;;37.17;16.73;;;0.00;71.00;;;;;;5128047;28;20076;-77
2021/12/22 08:24:18;;;;;;;38.35;17.10;;;0.10;71.10;;;;;;5112449;27;20034;-78
2021/12/22 08:26:44;;;;;;;39.85;16.30;;;0.10;71.20;;;;;;5125443;27;20049;-78
2021/12/22 08:29:09;;;;;;;41.95;15.88;;;0.10;71.30;;;;;;5129110;27;20047;-77
2021/12/22 08:31:35;;;;;;;37.70;16.02;;;0.10;71.30;;;;;;5108579;27;20066;-77
2021/12/22 08:34:01;;;;;;;39.05;15.88;;;0.20;71.40;;;;;;5109668;27;20027;-77
2021/12/22 08:39:13;;;;;;;44.28;16.48;;;0.30;71.30;;;;;;5133685;27;20030;-77
2021/12/22 08:41:40;;;;;;;38.33;16.10;;;0.30;71.20;;;;;;5122113;27;20395;-77
2021/12/22 08:44:11;;;;;;;32.55;14.77;;;0.30;71.10;;;;;;5124280;27;20111;-77
2021/12/22 08:46:42;;;;;;;35.47;16.40;;;0.30;71.10;;;;;;5127031;27;20660;-79
2021/12/22 08:49:07;;;;;;;38.25;15.90;;;0.40;71.30;;;;;;5121904;27;20554;-78
2021/12/22 08:51:34;;;;;;;40.20;17.05;;;0.40;71.10;;;;;;5103395;27;20031;-78
2021/12/22 08:54:03;;;;;;;44.70;16.48;;;0.40;71.10;;;;;;5100454;27;20172;-78
2021/12/22 08:56:30;;;;;;;40.45;16.92;;;0.40;71.10;;;;;;5107223;28;20069;-78
2021/12/22 08:58:56;;;;;;;35.00;16.00;;;0.40;71.00;;;;;;5114301;27;20019;-77
2021/12/22 09:01:22;;;;;;;42.08;17.98;;;0.50;71.00;;;;;;5112894;27;20024;-77
2021/12/22 09:03:48;;;;;;;38.60;17.38;;;0.50;71.00;;;;;;5121818;27;20077;-75
2021/12/22 09:06:14;;;;;;;41.13;17.23;;;0.60;71.10;;;;;;5124757;27;20446;-75
2021/12/22 09:08:41;;;;;;;40.10;18.00;;;0.50;71.10;;;;;;5115855;27;20487;-76
2021/12/22 09:11:07;;;;;;;37.15;17.38;;;0.60;71.90;;;;;;5111684;27;20034;-78
2021/12/22 09:13:35;;;;;;;36.83;17.10;;;0.60;71.20;;;;;;5133865;27;20023;-77
2021/12/22 09:16:01;;;;;;;37.70;18.60;;;0.70;71.20;;;;;;5135283;27;20045;-76
2021/12/22 09:18:27;;;;;;;37.03;17.30;;;1.00;71.30;;;;;;5130623;27;20488;-76
2021/12/22 09:20:52;;;;;;;43.70;17.92;;;0.80;70.90;;;;;;5116436;27;20095;-75
2021/12/22 09:23:18;;;;;;;43.38;19.27;;;0.80;70.80;;;;;;5124145;27;20535;-76
2021/12/22 09:25:44;;;;;;;39.72;19.35;;;0.80;70.70;;;;;;5127039;27;20034;-75
2021/12/22 09:28:12;;;;;;;47.00;19.45;;;0.90;70.70;;;;;;5108014;27;20482;-75
2021/12/22 09:30:41;;;;;;;42.90;19.58;;;0.80;70.70;;;;;;5125150;27;20472;-76
2021/12/22 09:33:11;;;;;;;38.63;17.63;;;0.80;70.70;;;;;;5102907;27;20027;-76
2021/12/22 09:35:38;;;;;;;37.47;19.08;;;0.80;70.80;;;;;;5111071;27;20116;-75
2021/12/22 09:38:05;;;;;;;36.42;18.25;;;0.80;70.90;;;;;;5122329;27;20023;-75
2021/12/22 09:40:31;;;;;;;32.85;17.20;;;0.90;71.00;;;;;;5107442;27;20561;-75
2021/12/22 09:42:56;;;;;;;30.45;16.33;;;0.90;70.90;;;;;;5126073;27;20102;-75
2021/12/22 09:45:25;;;;;;;34.25;16.67;;;1.00;70.70;;;;;;5125982;27;20027;-77
2021/12/22 09:50:44;;;;;;;39.25;18.25;;;1.00;70.60;;;;;;5129968;27;20063;-75
2021/12/22 09:53:10;;;;;;;37.35;17.85;;;1.10;70.60;;;;;;5112544;27;20099;-75
2021/12/22 09:55:36;;;;;;;37.47;18.05;;;1.10;70.60;;;;;;5110357;27;20101;-76
2021/12/22 09:58:03;;;;;;;34.47;17.67;;;1.10;70.80;;;;;;5109500;27;20023;-76
2021/12/22 10:00:32;;;;;;;36.85;17.88;;;1.20;70.80;;;;;;5089352;27;20031;-76
2021/12/22 10:02:58;;;;;;;35.35;17.33;;;1.20;70.70;;;;;;5094150;27;20031;-76
2021/12/22 10:05:24;;;;;;;33.17;17.42;;;1.30;70.80;;;;;;5110179;27;20524;-76
2021/12/22 10:08:11;;;;;;;36.72;17.98;;;1.30;70.80;;;;;;5103748;27;20041;-75
2021/12/22 10:10:41;;;;;;;34.20;18.05;;;1.30;70.80;;;;;;5087185;27;20043;-76
2021/12/22 10:13:13;;;;;;;32.10;17.25;;;1.40;70.80;;;;;;5089924;27;20045;-74
2021/12/22 10:15:39;;;;;;;30.73;17.20;;;1.50;70.80;;;;;;5108480;27;20027;-75
2021/12/22 10:18:17;;;;;;;32.88;17.23;;;1.60;70.70;;;;;;5091256;27;20034;-76
2021/12/22 10:20:46;;;;;;;31.67;16.90;;;1.60;70.60;;;;;;5106326;27;20038;-75
2021/12/22 10:23:25;;;;;;;34.22;19.08;;;1.70;70.60;;;;;;5110337;27;20037;-76
2021/12/22 10:25:57;;;;;;;34.55;17.13;;;1.70;70.50;;;;;;5108569;27;20039;-76
2021/12/22 10:28:25;;;;;;;31.63;17.63;;;1.70;70.30;;;;;;5108334;27;20043;-75
2021/12/22 10:30:58;;;;;;;31.58;16.60;;;1.80;70.30;;;;;;5101634;27;20039;-76
2021/12/22 10:33:26;;;;;;;30.35;16.73;;;1.90;70.40;;;;;;5088695;27;20379;-76
2021/12/22 10:35:55;;;;;;;29.25;17.25;;;1.90;70.30;;;;;;5092289;27;20186;-76
2021/12/22 10:38:27;;;;;;;30.35;17.13;;;1.90;70.00;;;;;;5090074;27;20026;-76
2021/12/22 10:41:08;;;;;;;36.95;19.23;;;2.00;70.00;;;;;;5109120;27;20034;-75
2021/12/22 10:43:40;;;;;;;34.90;18.13;;;2.20;70.00;;;;;;5108469;27;20064;-76
2021/12/22 10:46:06;;;;;;;35.05;19.20;;;2.00;69.80;;;;;;5107638;27;20039;-75
2021/12/22 10:51:33;;;;;;;32.83;19.17;;;2.10;69.60;;;;;;5108504;27;20643;-75
2021/12/22 10:54:05;;;;;;;35.92;18.67;;;2.20;70.00;;;;;;5109106;27;20032;-75
2021/12/22 10:56:35;;;;;;;38.88;19.60;;;2.20;70.20;;;;;;5112023;27;20052;-75
2021/12/22 10:59:06;;;;;;;35.00;17.80;;;2.40;70.20;;;;;;5125305;27;20479;-75
2021/12/22 11:01:34;;;;;;;34.53;18.08;;;2.50;70.20;;;;;;5109870;27;20023;-76
2021/12/22 11:04:03;;;;;;;32.15;17.33;;;2.60;70.00;;;;;;5094038;27;20053;-76
2021/12/22 11:06:32;;;;;;;31.23;17.63;;;2.80;69.80;;;;;;5088963;28;20060;-75
2021/12/22 11:09:08;;;;;;;35.47;17.40;;;2.90;69.40;;;;;;5101293;27;20039;-76
2021/12/22 11:11:39;;;;;;;31.25;16.67;;;3.10;69.20;;;;;;5105989;27;20023;-75
2021/12/22 11:14:10;;;;;;;30.50;17.42;;;3.10;69.00;;;;;;5101131;27;20123;-74
2021/12/22 11:17:03;;;;;;;36.60;19.08;;;3.20;68.70;;;;;;5090152;28;20051;-74
2021/12/22 11:19:32;;;;;;;41.75;19.75;;;3.20;68.10;;;;;;5088026;27;20076;-75
2021/12/22 11:22:14;;;;;;;32.85;17.98;;;3.20;68.40;;;;;;5107347;27;20050;-75
2021/12/22 11:24:50;;;;;;;47.45;21.38;;;3.30;68.10;;;;;;5108887;27;20360;-76
2021/12/22 11:27:19;;;;;;;66.28;26.77;;;3.30;68.30;;;;;;5088904;28;20031;-76
2021/12/22 11:29:54;;;;;;;93.40;36.60;;;3.40;68.40;;;;;;5111783;27;20426;-76
2021/12/22 11:32:31;;;;;;;53.72;24.63;;;3.40;68.20;;;;;;5091444;28;20039;-77
2021/12/22 11:34:59;;;;;;;34.80;18.05;;;3.40;67.50;;;;;;5109285;28;20106;-76
2021/12/22 11:37:26;;;;;;;34.50;17.90;;;3.40;67.70;;;;;;5090249;28;20031;-75
2021/12/22 11:39:53;;;;;;;31.33;17.27;;;3.30;67.40;;;;;;5092255;28;20020;-76
2021/12/22 11:42:24;;;;;;;28.25;16.90;;;3.30;67.80;;;;;;5086694;28;20028;-76
2021/12/22 11:44:54;;;;;;;26.92;16.75;;;3.40;67.80;;;;;;5106003;28;20072;-75
2021/12/22 11:47:20;;;;;;;23.73;15.18;;;3.40;67.20;;;;;;5107650;27;20030;-75
2021/12/22 11:49:59;;;;;;;25.77;15.73;;;3.30;67.20;;;;;;5110289;28;20035;-76
2021/12/22 11:52:38;;;;;;;61.60;25.40;;;3.30;67.00;;;;;;5091144;28;20031;-74
2021/12/22 11:55:14;;;;;;;31.20;17.17;;;3.40;66.90;;;;;;5109875;28;20124;-76
2021/12/22 11:57:42;;;;;;;30.52;17.35;;;3.30;67.00;;;;;;5084284;27;20066;-76
2021/12/22 12:00:32;;;;;;;25.50;15.23;;;3.20;67.00;;;;;;5089946;27;20068;-76
2021/12/22 12:03:19;;;;;;;29.80;15.90;;;3.20;66.40;;;;;;5082886;27;20653;-76
2021/12/22 12:06:01;;;;;;;29.30;15.00;;;3.10;66.60;;;;;;5112327;27;20519;-75
2021/12/22 12:08:33;;;;;;;25.45;15.10;;;3.00;66.30;;;;;;5099488;27;20463;-75
2021/12/22 12:11:00;;;;;;;23.15;14.13;;;3.00;66.60;;;;;;5107846;27;20034;-75
2021/12/22 12:13:35;;;;;;;26.77;15.32;;;2.90;66.70;;;;;;5134217;27;20116;-73
2021/12/22 12:22:20;;;;;;;29.08;14.15;;;2.70;66.70;;;;;;5131942;27;20115;-75
2021/12/22 12:25:10;;;;;;;25.63;14.85;;;2.70;66.50;;;;;;5115338;27;20639;-75
2021/12/22 12:27:42;;;;;;;26.05;15.32;;;2.50;66.30;;;;;;5109528;27;21861;-74
2021/12/22 12:30:39;;;;;;;25.17;14.95;;;2.50;66.50;;;;;;5131333;27;20047;-74
2021/12/22 12:33:06;;;;;;;25.35;15.10;;;2.40;66.60;;;;;;5094647;27;20031;-76
2021/12/22 12:35:35;;;;;;;28.23;15.73;;;2.30;66.80;;;;;;5110060;27;20110;-76
2021/12/22 12:38:15;;;;;;;24.63;15.13;;;2.30;67.00;;;;;;5110348;27;20034;-76
2021/12/22 12:46:24;;;;;;;28.93;16.33;;;2.20;67.40;;;;;;5110743;27;20030;-75
2021/12/22 12:49:06;;;;;;;28.60;15.68;;;2.10;67.30;;;;;;5101770;27;20945;-74
2021/12/22 12:51:49;;;;;;;27.40;15.90;;;2.10;67.50;;;;;;5107095;27;20103;-75
2021/12/22 12:54:18;;;;;;;30.58;15.25;;;2.10;67.50;;;;;;5106999;27;20636;-76
2021/12/22 12:56:46;;;;;;;31.35;16.85;;;2.10;67.50;;;;;;5110567;27;20065;-76
2021/12/22 12:59:16;;;;;;;25.73;14.82;;;2.10;67.70;;;;;;5089301;27;20031;-74
2021/12/22 13:04:22;;;;;;;25.63;15.88;;;2.10;68.30;;;;;;5107998;27;20034;-76
2021/12/22 13:06:52;;;;;;;26.17;14.82;;;2.20;67.50;;;;;;5099555;27;20743;-76
2021/12/22 13:09:33;;;;;;;31.02;15.82;;;2.10;67.40;;;;;;5112077;27;20040;-77
2021/12/22 13:12:17;;;;;;;37.22;20.10;;;2.10;67.30;;;;;;5102730;27;20035;-76
2021/12/22 13:17:42;;;;;;;49.38;23.27;;;2.00;67.40;;;;;;5103407;27;20391;-76
2021/12/22 13:20:15;;;;;;;40.30;21.75;;;2.00;67.60;;;;;;5108968;27;20027;-76
2021/12/22 13:22:45;;;;;;;42.45;22.58;;;2.00;67.70;;;;;;5131095;27;20023;-76
2021/12/22 13:25:25;;;;;;;47.08;22.67;;;2.00;67.80;;;;;;5131583;27;20028;-76